Shelbyville, Texas
Current Conditions -  °F | °C
As of 2:55 PM on Thursday 20 Nov 2014 (Local Time) from KOCH Reporting Station
Overcast Overcast  
Wind Chill: 70°   Ceiling: 8000
Heat Index: 70°   Visibility: 10mi
Dew Point: 55°   Wind: 6mph
Humidity: 60%   Direction: 170°S
Pressure: 30.08"   Gusts: NA
Location:  31.76°N, 94.08°W
Report Text: KOCH 202055Z AUTO 17005KT 10SM FEW049 SCT060 OVC080 21/13 A3008 RMK AO1 57030
Loading
Personal Weather Stations






























Interactive Weather Map New forecast layout! Learn more

10-Day Weather Forecast

Advertisements
Track Severe Weather on mobile